createdAt,value
2016-05-18T00:00:42.853Z,16.08
2016-05-18T00:01:42.933Z,16.09
2016-05-18T00:02:42.797Z,16.09
2016-05-18T00:03:43.017Z,16.12
2016-05-18T00:04:43.067Z,16.13
2016-05-18T00:05:43.117Z,16.08
2016-05-18T00:06:43.182Z,16.08
2016-05-18T00:07:43.388Z,16.15
2016-05-18T00:08:43.265Z,16.1
2016-05-18T00:09:43.330Z,16.16
2016-05-18T00:10:43.380Z,16.16
2016-05-18T00:11:43.258Z,16.1
2016-05-18T00:12:43.479Z,16.09
2016-05-18T00:13:43.560Z,16.04
2016-05-18T00:14:43.407Z,16.09
2016-05-18T00:15:43.612Z,16.16
2016-05-18T00:16:43.506Z,16.12
2016-05-18T00:17:43.727Z,16.1
2016-05-18T00:18:43.777Z,16.12
2016-05-18T00:19:43.810Z,16.08
2016-05-18T00:20:43.720Z,16.09
2016-05-18T00:21:43.925Z,16.09
2016-05-18T00:22:44.381Z,16.08
2016-05-18T00:23:43.946Z,16.17
2016-05-18T00:24:44.073Z,16.09
2016-05-18T00:25:44.109Z,16.09
2016-05-18T00:26:44.158Z,16.16
2016-05-18T00:27:44.206Z,16.13
2016-05-18T00:28:44.256Z,16.08
2016-05-18T00:29:44.306Z,16.09
2016-05-18T00:30:44.356Z,16.15
2016-05-18T00:31:44.421Z,16.13
2016-05-18T00:32:44.456Z,16.08
2016-05-18T00:33:44.364Z,16.09
2016-05-18T00:34:44.569Z,16.04
2016-05-18T00:35:44.463Z,16.09
2016-05-18T00:36:44.669Z,16.1
2016-05-18T00:37:44.562Z,16.13
2016-05-18T00:38:44.769Z,16.08
2016-05-18T00:39:44.786Z,16.05
2016-05-18T00:40:44.695Z,16.09
2016-05-18T00:41:44.917Z,16.15
2016-05-18T00:42:44.951Z,16.1
2016-05-18T00:43:45.015Z,16.09
2016-05-18T00:44:45.066Z,16.12
2016-05-18T00:45:44.974Z,16.12
2016-05-18T00:46:45.149Z,16.09
2016-05-18T00:47:45.198Z,16.1
2016-05-18T00:48:45.248Z,16.08
2016-05-18T00:49:45.156Z,16.08
2016-05-18T00:50:45.332Z,16.15
2016-05-18T00:51:45.396Z,16.08
2016-05-18T00:52:45.290Z,16.09
2016-05-18T00:53:45.496Z,16.09
2016-05-18T00:54:45.561Z,16.09
2016-05-18T00:55:45.595Z,16.08
2016-05-18T00:56:45.644Z,16.09
2016-05-18T00:57:45.694Z,16.09
2016-05-18T00:58:45.759Z,16.09
2016-05-18T00:59:45.809Z,16.09
2016-05-18T01:00:45.842Z,16.09
2016-05-18T01:01:45.752Z,16.08
2016-05-18T01:02:45.958Z,16.15
2016-05-18T01:03:45.991Z,16.05
2016-05-18T01:04:46.041Z,16.1
2016-05-18T01:05:46.106Z,16.04
2016-05-18T01:06:46.156Z,16.04
2016-05-18T01:07:46.205Z,16.05
2016-05-18T01:08:46.255Z,16.09
2016-05-18T01:09:46.305Z,16.04
2016-05-18T01:10:46.354Z,16.09
2016-05-18T01:11:46.388Z,16.09
2016-05-18T01:12:46.452Z,16.05
2016-05-18T01:13:46.488Z,16.02
2016-05-18T01:14:46.537Z,16.09
2016-05-18T01:15:46.585Z,16.15
2016-05-18T01:16:46.635Z,16.08
2016-05-18T01:17:46.685Z,16.09
2016-05-18T01:18:46.735Z,16.12
2016-05-18T01:19:46.628Z,16.08
2016-05-18T01:20:46.819Z,16.16
2016-05-18T01:21:46.743Z,16.05
2016-05-18T01:22:47.027Z,16.08
2016-05-18T01:23:46.998Z,16.09
2016-05-18T01:24:47.047Z,16.04
2016-05-18T01:25:47.098Z,16.09
2016-05-18T01:26:47.131Z,16.08
2016-05-18T01:27:47.181Z,16.05
2016-05-18T01:28:47.246Z,16.05
2016-05-18T01:29:47.123Z,16.01
2016-05-18T01:30:47.345Z,16.12
2016-05-18T01:31:47.378Z,16.01
2016-05-18T01:32:47.429Z,16.12
2016-05-18T01:33:47.478Z,16.1
2016-05-18T01:34:47.356Z,16.12
2016-05-18T01:35:47.593Z,16.13
2016-05-18T01:36:47.627Z,16.15
2016-05-18T01:37:47.849Z,16.01
2016-05-18T01:38:47.569Z,16.02
2016-05-18T01:39:47.479Z,16.04
2016-05-18T01:40:47.825Z,16.04
2016-05-18T01:41:47.735Z,16.09
2016-05-18T01:42:47.940Z,16.05
2016-05-18T01:43:47.974Z,16.08
2016-05-18T01:44:48.039Z,16.08
2016-05-18T01:45:48.057Z,16.1
2016-05-18T01:46:48.123Z,16.16
2016-05-18T01:47:48.172Z,16.05
2016-05-18T01:48:48.066Z,16.08
2016-05-18T01:49:48.271Z,16.09
2016-05-18T01:50:48.337Z,16.09
2016-05-18T01:51:48.370Z,16.05
2016-05-18T01:52:48.451Z,16.1
2016-05-18T01:53:48.485Z,16.05
2016-05-18T01:54:48.534Z,16.12
2016-05-18T01:55:48.568Z,16.1
2016-05-18T01:56:48.634Z,16.05
2016-05-18T01:57:48.653Z,16.08
2016-05-18T01:58:48.717Z,16.09
2016-05-18T01:59:48.783Z,16.09
2016-05-18T02:00:48.817Z,16.12
2016-05-18T02:01:48.881Z,16.13
2016-05-18T02:02:48.776Z,16.08
2016-05-18T02:03:48.825Z,16.04
2016-05-18T02:04:49.030Z,16.12
2016-05-18T02:05:49.080Z,16.12
2016-05-18T02:06:49.098Z,16.13
2016-05-18T02:07:49.554Z,16.08
2016-05-18T02:08:49.228Z,16.12
2016-05-18T02:09:49.263Z,16.04
2016-05-18T02:10:49.296Z,16.1
2016-05-18T02:11:49.206Z,16.05
2016-05-18T02:12:49.411Z,16.05
2016-05-18T02:13:49.476Z,16.13
2016-05-18T02:14:49.511Z,16.1
2016-05-18T02:15:49.560Z,16.15
2016-05-18T02:16:49.454Z,16.12
2016-05-18T02:17:49.659Z,16.16
2016-05-18T02:18:49.584Z,16.12
2016-05-18T02:19:49.774Z,16.13
2016-05-18T02:20:49.807Z,16.08
2016-05-18T02:21:49.857Z,16.12
2016-05-18T02:22:50.188Z,16.09
2016-05-18T02:23:49.801Z,16.09
2016-05-18T02:24:49.990Z,16.1
2016-05-18T02:25:49.759Z,16.1
2016-05-18T02:26:50.106Z,16.09
2016-05-18T02:27:49.998Z,16.13
2016-05-18T02:28:50.204Z,16.04
2016-05-18T02:29:50.284Z,16.08
2016-05-18T02:30:50.320Z,16.15
2016-05-18T02:31:50.384Z,16.12
2016-05-18T02:32:50.434Z,16.08
2016-05-18T02:33:50.452Z,16.04
2016-05-18T02:34:50.517Z,16.12
2016-05-18T02:35:50.551Z,16.1
2016-05-18T02:36:50.617Z,16.09
2016-05-18T02:37:50.353Z,16.15
2016-05-18T02:38:50.700Z,16.12
2016-05-18T02:39:50.781Z,16.1
2016-05-18T02:40:50.830Z,16.1
2016-05-18T02:41:50.864Z,16.12
2016-05-18T02:42:50.758Z,15.98
2016-05-18T02:43:50.963Z,16.1
2016-05-18T02:44:51.013Z,16.09
2016-05-18T02:45:50.906Z,16.15
2016-05-18T02:46:50.972Z,16.08
2016-05-18T02:47:51.146Z,16.09
2016-05-18T02:48:51.227Z,16.08
2016-05-18T02:49:51.088Z,16.13
2016-05-18T02:50:51.186Z,16.08
2016-05-18T02:51:51.219Z,16.09
2016-05-18T02:52:51.409Z,16.12
2016-05-18T02:53:51.460Z,16.1
2016-05-18T02:54:51.524Z,16.04
2016-05-18T02:55:51.386Z,16.08
2016-05-18T02:56:51.451Z,16.13
2016-05-18T02:57:51.657Z,16.09
2016-05-18T02:58:51.692Z,16.05
2016-05-18T02:59:51.740Z,16.04
2016-05-18T03:00:51.822Z,16.15
2016-05-18T03:01:51.840Z,16.09
2016-05-18T03:02:51.920Z,16.12
2016-05-18T03:03:51.955Z,16.08
2016-05-18T03:04:52.004Z,16.1
2016-05-18T03:05:51.929Z,16.04
2016-05-18T03:06:52.103Z,16.05
2016-05-18T03:07:51.997Z,16.12
2016-05-18T03:08:52.061Z,16.09
2016-05-18T03:09:52.252Z,16.12
2016-05-18T03:10:52.302Z,16.08
2016-05-18T03:11:52.366Z,16.09
2016-05-18T03:12:52.417Z,16.08
2016-05-18T03:13:52.435Z,16.09
2016-05-18T03:14:52.484Z,16.09
2016-05-18T03:15:52.533Z,16.05
2016-05-18T03:16:52.599Z,16.04
2016-05-18T03:17:52.649Z,16.08
2016-05-18T03:18:52.682Z,16.15
2016-05-18T03:19:52.749Z,16.12
2016-05-18T03:20:52.797Z,16.01
2016-05-18T03:21:52.831Z,16.15
2016-05-18T03:22:53.052Z,16.04
2016-05-18T03:23:52.961Z,16.09
2016-05-18T03:24:52.980Z,16.12
2016-05-18T03:25:52.748Z,16.08
2016-05-18T03:26:52.938Z,16.1
2016-05-18T03:27:53.160Z,16.02
2016-05-18T03:28:53.209Z,16.12
2016-05-18T03:29:53.228Z,16.13
2016-05-18T03:30:53.121Z,16.08
2016-05-18T03:31:53.343Z,16.13
2016-05-18T03:32:53.376Z,16.12
2016-05-18T03:33:53.426Z,16.15
2016-05-18T03:34:53.491Z,16.08
2016-05-18T03:35:53.525Z,16.08
2016-05-18T03:36:53.575Z,16.12
2016-05-18T03:37:53.702Z,16.09
2016-05-18T03:38:53.690Z,16.08
2016-05-18T03:39:53.738Z,16.08
2016-05-18T03:40:53.460Z,16.04
2016-05-18T03:41:53.666Z,16.02
2016-05-18T03:42:53.888Z,16.08
2016-05-18T03:43:53.766Z,16.04
2016-05-18T03:44:53.987Z,16.01
2016-05-18T03:45:54.036Z,15.98
2016-05-18T03:46:54.086Z,16.13
2016-05-18T03:47:54.120Z,16.15
2016-05-18T03:48:54.201Z,16.13
2016-05-18T03:49:54.094Z,16.04
2016-05-18T03:50:54.269Z,16.09
2016-05-18T03:51:54.334Z,16.04
2016-05-18T03:52:54.821Z,16.02
2016-05-18T03:53:54.432Z,16.08
2016-05-18T03:54:54.483Z,16.08
2016-05-18T03:55:54.516Z,16.08
2016-05-18T03:56:54.582Z,16.08
2016-05-18T03:57:54.616Z,16.12
2016-05-18T03:58:54.509Z,16.13
2016-05-18T03:59:54.590Z,16.16
2016-05-18T04:00:54.779Z,16.1
2016-05-18T04:01:54.814Z,16.01
2016-05-18T04:02:54.879Z,16.02
2016-05-18T04:03:54.945Z,16.08
2016-05-18T04:04:54.978Z,16.09
2016-05-18T04:05:54.856Z,16.01
2016-05-18T04:06:55.078Z,16.1
2016-05-18T04:07:55.580Z,16.02
2016-05-18T04:08:55.161Z,16.02
2016-05-18T04:09:55.242Z,16.09
2016-05-18T04:10:55.135Z,16.04
2016-05-18T04:11:55.325Z,16.1
2016-05-18T04:12:55.391Z,16.12
2016-05-18T04:13:55.440Z,16.02
2016-05-18T04:14:55.474Z,15.98
2016-05-18T04:15:55.524Z,16.09
2016-05-18T04:16:55.588Z,16.09
2016-05-18T04:17:55.607Z,16.04
2016-05-18T04:18:55.657Z,16
2016-05-18T04:19:55.705Z,16.02
2016-05-18T04:20:55.616Z,16
2016-05-18T04:21:55.805Z,16.01
2016-05-18T04:22:56.183Z,16.15
2016-05-18T04:23:55.779Z,16.05
2016-05-18T04:24:55.969Z,15.97
2016-05-18T04:25:56.004Z,16.01
2016-05-18T04:26:56.084Z,16.09
2016-05-18T04:27:56.135Z,16.04
2016-05-18T04:28:56.152Z,16.02
2016-05-18T04:29:56.248Z,16.05
2016-05-18T04:30:56.251Z,16.13
2016-05-18T04:31:56.331Z,16.02
2016-05-18T04:32:56.365Z,16.08
2016-05-18T04:33:56.400Z,16.08
2016-05-18T04:34:56.481Z,16.08
2016-05-18T04:35:56.515Z,16.04
2016-05-18T04:36:56.565Z,16.01
2016-05-18T04:37:56.629Z,15.98
2016-05-18T04:38:56.679Z,16.04
2016-05-18T04:39:56.698Z,15.98
2016-05-18T04:40:56.747Z,16.13
2016-05-18T04:41:56.812Z,16.04
2016-05-18T04:42:56.846Z,16.1
2016-05-18T04:43:56.927Z,16.15
2016-05-18T04:44:56.945Z,16.04
2016-05-18T04:45:56.995Z,16.02
2016-05-18T04:46:56.919Z,16.04
2016-05-18T04:47:57.094Z,16.04
2016-05-18T04:48:57.143Z,16.09
2016-05-18T04:49:57.068Z,16.02
2016-05-18T04:50:57.274Z,15.98
2016-05-18T04:51:57.292Z,16.02
2016-05-18T04:52:57.374Z,16
2016-05-18T04:53:57.422Z,16.02
2016-05-18T04:54:57.129Z,16.01
2016-05-18T04:55:57.349Z,16.02
2016-05-18T04:56:57.540Z,15.98
2016-05-18T04:57:57.464Z,16.01
2016-05-18T04:58:57.640Z,16.01
2016-05-18T04:59:57.688Z,16.04
2016-05-18T05:00:57.770Z,16.09
2016-05-18T05:01:57.788Z,16.1
2016-05-18T05:02:57.681Z,16.02
2016-05-18T05:03:57.918Z,16.09
2016-05-18T05:04:57.951Z,16.1
2016-05-18T05:05:57.986Z,16.02
2016-05-18T05:06:57.754Z,16
2016-05-18T05:07:57.959Z,16.12
2016-05-18T05:08:58.134Z,16.08
2016-05-18T05:09:58.045Z,16.05
2016-05-18T05:10:58.233Z,16.1
2016-05-18T05:11:58.299Z,16.09
2016-05-18T05:12:58.380Z,16.02
2016-05-18T05:13:58.070Z,16.1
2016-05-18T05:14:58.291Z,16.08
2016-05-18T05:15:58.497Z,16.15
2016-05-18T05:16:58.531Z,16.04
2016-05-18T05:17:58.581Z,16.15
2016-05-18T05:18:58.678Z,16.13
2016-05-18T05:19:58.680Z,16.1
2016-05-18T05:20:58.729Z,16.1
2016-05-18T05:21:58.810Z,16.13
2016-05-18T05:22:58.860Z,16.1
2016-05-18T05:23:58.925Z,16.1
2016-05-18T05:24:58.772Z,16.09
2016-05-18T05:25:58.977Z,16.08
2016-05-18T05:26:59.043Z,16.09
2016-05-18T05:27:59.076Z,16.09
2016-05-18T05:28:58.971Z,16.04
2016-05-18T05:29:59.207Z,16.08
2016-05-18T05:30:59.240Z,16.1
2016-05-18T05:31:59.274Z,16.05
2016-05-18T05:32:59.356Z,16.08
2016-05-18T05:33:59.405Z,16.08
2016-05-18T05:34:59.439Z,16.08
2016-05-18T05:35:59.473Z,16.08
2016-05-18T05:36:59.537Z,16.05
2016-05-18T05:37:59.323Z,16.1
2016-05-18T05:38:59.622Z,16.09
2016-05-18T05:39:59.359Z,16.09
2016-05-18T05:40:59.581Z,16.09
2016-05-18T05:41:59.770Z,16.13
2016-05-18T05:42:59.820Z,16.04
2016-05-18T05:43:59.900Z,16.1
2016-05-18T05:44:59.950Z,16.08
2016-05-18T05:45:59.969Z,16.08
2016-05-18T05:47:00.033Z,16.05
2016-05-18T05:48:00.083Z,16.09
2016-05-18T05:49:00.102Z,16.1
2016-05-18T05:50:00.166Z,16.05
2016-05-18T05:51:00.247Z,16.15
2016-05-18T05:52:00.266Z,16.1
2016-05-18T05:53:00.580Z,16.08
2016-05-18T05:54:00.240Z,16.1
2016-05-18T05:55:00.430Z,16.15
2016-05-18T05:56:00.480Z,16.09
2016-05-18T05:57:00.530Z,16.05
2016-05-18T05:58:00.439Z,16.05
2016-05-18T05:59:00.613Z,16.09
2016-05-18T06:00:00.678Z,16.09
2016-05-18T06:01:00.712Z,16.09
2016-05-18T06:02:00.777Z,16.09
2016-05-18T06:03:00.796Z,16.13
2016-05-18T06:04:00.860Z,16.1
2016-05-18T06:05:00.926Z,16.12
2016-05-18T06:06:00.976Z,16.09
2016-05-18T06:07:00.993Z,16.1
2016-05-18T06:08:00.934Z,16.15
2016-05-18T06:09:01.124Z,16.08
2016-05-18T06:10:01.173Z,16.16
2016-05-18T06:11:01.239Z,16.16
2016-05-18T06:12:01.289Z,16.12
2016-05-18T06:13:01.306Z,16.04
2016-05-18T06:14:01.387Z,16.09
2016-05-18T06:15:01.389Z,16.08
2016-05-18T06:16:01.314Z,16.05
2016-05-18T06:17:01.521Z,16.15
2016-05-18T06:18:01.398Z,16.1
2016-05-18T06:19:01.635Z,16.09
2016-05-18T06:20:01.685Z,16.09
2016-05-18T06:21:01.703Z,16.09
2016-05-18T06:22:01.769Z,16.13
2016-05-18T06:23:02.927Z,16.1
2016-05-18T06:24:01.836Z,16.12
2016-05-18T06:25:01.902Z,16.12
2016-05-18T06:26:01.966Z,16.05
2016-05-18T06:27:02.016Z,16.05
2016-05-18T06:28:01.925Z,16.1
2016-05-18T06:29:02.099Z,16.15
2016-05-18T06:30:02.134Z,16.09
2016-05-18T06:31:02.215Z,16.05
2016-05-18T06:32:02.248Z,16.08
2016-05-18T06:33:02.298Z,16.13
2016-05-18T06:34:02.363Z,16.09
2016-05-18T06:35:02.413Z,16.01
2016-05-18T06:36:02.447Z,16.09
2016-05-18T06:37:02.371Z,16.09
2016-05-18T06:38:02.781Z,16.08
2016-05-18T06:39:02.595Z,16.13
2016-05-18T06:40:02.645Z,16.08
2016-05-18T06:41:02.695Z,16.15
2016-05-18T06:42:02.604Z,16.12
2016-05-18T06:43:02.809Z,16.04
2016-05-18T06:44:02.686Z,16.09
2016-05-18T06:45:02.924Z,16.13
2016-05-18T06:46:02.989Z,16.09
2016-05-18T06:47:02.992Z,16.09
2016-05-18T06:48:02.900Z,16.05
2016-05-18T06:49:03.107Z,16.13
2016-05-18T06:50:03.141Z,16.12
2016-05-18T06:51:03.191Z,16.13
2016-05-18T06:52:03.240Z,16.1
2016-05-18T06:53:03.352Z,16.09
2016-05-18T06:54:03.355Z,16.13
2016-05-18T06:55:03.389Z,16.1
2016-05-18T06:56:03.469Z,16.1
2016-05-18T06:57:03.503Z,16.12
2016-05-18T06:58:03.538Z,16.09
2016-05-18T06:59:03.602Z,16.12
2016-05-18T07:00:03.652Z,16.15
2016-05-18T07:01:03.686Z,16.1
2016-05-18T07:02:03.751Z,16.09
2016-05-18T07:03:03.801Z,16.09
2016-05-18T07:04:03.819Z,16.12
2016-05-18T07:05:03.899Z,16.09
2016-05-18T07:06:03.934Z,16.12
2016-05-18T07:07:03.843Z,16.1
2016-05-18T07:08:04.532Z,16.1
2016-05-18T07:09:04.082Z,16.15
2016-05-18T07:10:04.148Z,16.15
2016-05-18T07:11:04.213Z,16.13
2016-05-18T07:12:04.215Z,16.15
2016-05-18T07:13:04.281Z,16.17
2016-05-18T07:14:04.345Z,16.13
2016-05-18T07:15:04.381Z,16.09
2016-05-18T07:16:04.429Z,16.12
2016-05-18T07:17:04.495Z,16.16
2016-05-18T07:18:04.528Z,16.12
2016-05-18T07:19:04.594Z,16.15
2016-05-18T07:20:04.628Z,16.15
2016-05-18T07:21:04.661Z,16.12
2016-05-18T07:22:04.758Z,16.21
2016-05-18T07:23:04.652Z,16.17
2016-05-18T07:24:04.825Z,16.16
2016-05-18T07:25:04.907Z,16.16
2016-05-18T07:26:04.972Z,16.23
2016-05-18T07:27:04.975Z,16.1
2016-05-18T07:28:05.040Z,16.13
2016-05-18T07:29:05.089Z,16.17
2016-05-18T07:30:05.108Z,16.17
2016-05-18T07:31:05.205Z,16.2
2016-05-18T07:32:05.255Z,16.16
2016-05-18T07:33:05.288Z,16.12
2016-05-18T07:34:05.321Z,16.15
2016-05-18T07:35:05.402Z,16.17
2016-05-18T07:36:05.405Z,16.16
2016-05-18T07:37:05.486Z,16.17
2016-05-18T07:38:05.801Z,16.2
2016-05-18T07:39:05.570Z,16.13
2016-05-18T07:40:05.603Z,16.15
2016-05-18T07:41:05.701Z,16.23
2016-05-18T07:42:05.734Z,16.15
2016-05-18T07:43:05.784Z,16.26
2016-05-18T07:44:05.833Z,16.26
2016-05-18T07:45:05.867Z,16.26
2016-05-18T07:46:06.135Z,16.2
2016-05-18T07:47:05.826Z,16.28
2016-05-18T07:48:06.015Z,16.21
2016-05-18T07:49:06.097Z,16.31
2016-05-18T07:50:06.145Z,16.31
2016-05-18T07:51:06.164Z,16.23
2016-05-18T07:52:06.245Z,16.26
2016-05-18T07:53:06.153Z,16.31
2016-05-18T07:54:06.313Z,16.28
2016-05-18T07:55:06.378Z,16.26
2016-05-18T07:56:06.428Z,16.26
2016-05-18T07:57:06.493Z,16.26
2016-05-18T07:58:06.527Z,16.32
2016-05-18T07:59:06.560Z,16.24
2016-05-18T08:00:06.627Z,16.26
2016-05-18T08:01:06.692Z,16.31
2016-05-18T08:02:06.710Z,16.26
2016-05-18T08:03:06.775Z,16.26
2016-05-18T08:04:06.824Z,16.32
2016-05-18T08:05:06.858Z,16.24
2016-05-18T08:06:06.908Z,16.32
2016-05-18T08:07:06.973Z,16.29
2016-05-18T08:08:07.023Z,16.32
2016-05-18T08:09:06.916Z,16.23
2016-05-18T08:10:07.107Z,16.31
2016-05-18T08:11:07.171Z,16.29
2016-05-18T08:12:07.065Z,16.23
2016-05-18T08:13:07.254Z,16.33
2016-05-18T08:14:07.320Z,16.26
2016-05-18T08:15:07.370Z,16.32
2016-05-18T08:16:07.403Z,16.33
2016-05-18T08:17:07.453Z,16.32
2016-05-18T08:18:07.377Z,16.32
2016-05-18T08:19:07.552Z,16.38
2016-05-18T08:20:07.430Z,16.33
2016-05-18T08:21:07.667Z,16.33
2016-05-18T08:22:07.701Z,16.39
2016-05-18T08:23:08.079Z,16.39
2016-05-18T08:24:07.753Z,16.41
2016-05-18T08:25:07.694Z,16.33
2016-05-18T08:26:07.931Z,16.41
2016-05-18T08:27:07.964Z,16.41
2016-05-18T08:28:08.008Z,16.46
2016-05-18T08:29:08.133Z,16.41
2016-05-18T08:30:08.052Z,16.33
2016-05-18T08:31:08.300Z,16.39
2016-05-18T08:32:08.392Z,16.46
2016-05-18T08:33:08.492Z,16.38
2016-05-18T08:34:08.526Z,16.42
2016-05-18T08:35:08.435Z,16.38
2016-05-18T08:36:08.655Z,16.39
2016-05-18T08:37:08.581Z,16.47
2016-05-18T08:38:08.799Z,16.42
2016-05-18T08:39:08.682Z,16.42
2016-05-18T08:40:08.940Z,16.49
2016-05-18T08:41:08.979Z,16.46
2016-05-18T08:42:09.018Z,16.39
2016-05-18T08:43:09.089Z,16.39
2016-05-18T08:44:09.156Z,16.42
2016-05-18T08:45:09.177Z,16.39
2016-05-18T08:46:09.229Z,16.46
2016-05-18T08:47:09.109Z,16.31
2016-05-18T08:48:09.191Z,16.39
2016-05-18T08:49:09.398Z,16.39
2016-05-18T08:50:09.417Z,16.42
2016-05-18T08:51:09.498Z,16.42
2016-05-18T08:52:09.392Z,16.47
2016-05-18T08:53:09.927Z,16.46
2016-05-18T08:54:09.633Z,16.33
2016-05-18T08:55:09.698Z,16.31
2016-05-18T08:56:09.717Z,16.39
2016-05-18T08:57:09.781Z,16.42
2016-05-18T08:58:09.706Z,16.46
2016-05-18T08:59:09.865Z,16.31
2016-05-18T09:00:09.930Z,16.5
2016-05-18T09:01:09.964Z,16.43
2016-05-18T09:02:10.013Z,16.39
2016-05-18T09:03:09.922Z,16.39
2016-05-18T09:04:10.129Z,16.39
2016-05-18T09:05:10.163Z,16.46
2016-05-18T09:06:10.243Z,16.5
2016-05-18T09:07:10.121Z,16.41
2016-05-18T09:08:10.326Z,16.46
2016-05-18T09:09:10.392Z,16.35
2016-05-18T09:10:10.426Z,16.46
2016-05-18T09:11:10.460Z,16.46
2016-05-18T09:12:10.540Z,16.47
2016-05-18T09:13:10.731Z,16.47
2016-05-18T09:14:10.468Z,16.41
2016-05-18T09:15:10.689Z,16.42
2016-05-18T09:16:10.739Z,16.43
2016-05-18T09:17:10.773Z,16.36
2016-05-18T09:18:10.823Z,16.49
2016-05-18T09:19:10.731Z,16.41
2016-05-18T09:20:10.906Z,16.39
2016-05-18T09:21:10.970Z,16.38
2016-05-18T09:22:11.036Z,16.38
2016-05-18T09:23:11.070Z,16.41
2016-05-18T09:24:11.136Z,16.33
2016-05-18T09:25:11.200Z,16.47
2016-05-18T09:26:11.203Z,16.39
2016-05-18T09:27:11.284Z,16.33
2016-05-18T09:28:11.161Z,16.46
2016-05-18T09:29:11.196Z,16.36
2016-05-18T09:30:11.448Z,16.38
2016-05-18T09:31:11.326Z,16.43
2016-05-18T09:32:11.360Z,16.46
2016-05-18T09:33:11.597Z,16.47
2016-05-18T09:34:11.474Z,16.42
2016-05-18T09:35:11.680Z,16.49
2016-05-18T09:36:11.574Z,16.43
2016-05-18T09:37:11.779Z,16.49
2016-05-18T09:38:11.657Z,16.42
2016-05-18T09:39:11.879Z,16.46
2016-05-18T09:40:11.757Z,16.42
2016-05-18T09:41:11.993Z,16.41
2016-05-18T09:42:11.887Z,16.42
2016-05-18T09:43:11.904Z,16.47
2016-05-18T09:44:11.986Z,16.49
2016-05-18T09:45:12.020Z,16.47
2016-05-18T09:46:12.226Z,16.49
2016-05-18T09:47:12.119Z,16.47
2016-05-18T09:48:12.168Z,16.42
2016-05-18T09:49:12.375Z,16.49
2016-05-18T09:50:12.408Z,16.49
2016-05-18T09:51:12.473Z,16.47
2016-05-18T09:52:12.539Z,16.42
2016-05-18T09:53:12.276Z,16.43
2016-05-18T09:54:12.606Z,16.46
2016-05-18T09:55:12.672Z,16.46
2016-05-18T09:56:12.737Z,16.39
2016-05-18T09:57:12.756Z,16.46
2016-05-18T09:58:12.820Z,16.49
2016-05-18T09:59:12.886Z,16.5
2016-05-18T10:00:12.904Z,16.46
2016-05-18T10:01:12.953Z,16.41
2016-05-18T10:02:13.019Z,16.46
2016-05-18T10:03:13.069Z,16.5
2016-05-18T10:04:13.102Z,16.43
2016-05-18T10:05:13.183Z,16.53
2016-05-18T10:06:13.233Z,16.43
2016-05-18T10:07:13.266Z,16.53
2016-05-18T10:08:13.988Z,16.49
2016-05-18T10:09:13.382Z,16.47
2016-05-18T10:10:13.399Z,16.49
2016-05-18T10:11:13.309Z,16.43
2016-05-18T10:12:13.530Z,16.47
2016-05-18T10:13:13.392Z,16.43
2016-05-18T10:14:13.598Z,16.5
2016-05-18T10:15:13.523Z,16.5
2016-05-18T10:16:13.712Z,16.47
2016-05-18T10:17:13.778Z,16.5
2016-05-18T10:18:13.656Z,16.53
2016-05-18T10:19:13.721Z,16.46
2016-05-18T10:20:13.926Z,16.43
2016-05-18T10:21:13.789Z,16.56
2016-05-18T10:22:14.026Z,16.42
2016-05-18T10:23:14.231Z,16.43
2016-05-18T10:24:13.953Z,16.5
2016-05-18T10:25:14.143Z,16.53
2016-05-18T10:26:14.067Z,16.43
2016-05-18T10:27:14.258Z,16.42
2016-05-18T10:28:14.308Z,16.51
2016-05-18T10:29:14.372Z,16.56
2016-05-18T10:30:14.422Z,16.53
2016-05-18T10:31:14.316Z,16.49
2016-05-18T10:32:14.491Z,16.51
2016-05-18T10:33:14.555Z,16.42
2016-05-18T10:34:14.621Z,16.53
2016-05-18T10:35:14.655Z,16.53
2016-05-18T10:36:14.689Z,16.43
2016-05-18T10:37:14.769Z,16.49
2016-05-18T10:38:14.802Z,16.51
2016-05-18T10:39:14.852Z,16.57
2016-05-18T10:40:14.918Z,16.51
2016-05-18T10:41:14.811Z,16.53
2016-05-18T10:42:15.002Z,16.46
2016-05-18T10:43:15.066Z,16.53
2016-05-18T10:44:15.101Z,16.42
2016-05-18T10:45:15.182Z,16.46
2016-05-18T10:46:15.231Z,16.53
2016-05-18T10:47:15.249Z,16.49
2016-05-18T10:48:15.315Z,16.5
2016-05-18T10:49:15.380Z,16.46
2016-05-18T10:50:15.398Z,16.49
2016-05-18T10:51:15.447Z,16.42
2016-05-18T10:52:15.513Z,16.5
2016-05-18T10:53:15.875Z,16.51
2016-05-18T10:54:15.425Z,16.5
2016-05-18T10:55:15.678Z,16.5
2016-05-18T10:56:15.695Z,16.5
2016-05-18T10:57:15.745Z,16.5
2016-05-18T10:58:15.811Z,16.51
2016-05-18T10:59:15.844Z,16.5
2016-05-18T11:00:15.722Z,16.5
2016-05-18T11:01:15.975Z,16.53
2016-05-18T11:02:15.853Z,16.5
2016-05-18T11:03:16.042Z,16.42
2016-05-18T11:04:16.123Z,16.5
2016-05-18T11:05:16.157Z,16.5
2016-05-18T11:06:16.207Z,16.5
2016-05-18T11:07:16.272Z,16.47
2016-05-18T11:08:16.306Z,16.53
2016-05-18T11:09:16.215Z,16.56
2016-05-18T11:10:16.420Z,16.47
2016-05-18T11:11:16.283Z,16.49
2016-05-18T11:12:16.519Z,16.41
2016-05-18T11:13:16.569Z,16.5
2016-05-18T11:14:16.588Z,16.42
2016-05-18T11:15:16.652Z,16.43
2016-05-18T11:16:16.545Z,16.54
2016-05-18T11:17:16.737Z,16.51
2016-05-18T11:18:16.629Z,16.5
2016-05-18T11:19:16.867Z,16.56
2016-05-18T11:20:16.900Z,16.5
2016-05-18T11:21:16.965Z,16.46
2016-05-18T11:22:16.984Z,16.6
2016-05-18T11:23:17.378Z,16.56
2016-05-18T11:24:16.942Z,16.51
2016-05-18T11:25:16.820Z,16.47
2016-05-18T11:26:17.182Z,16.47
2016-05-18T11:27:17.263Z,16.47
2016-05-18T11:28:17.282Z,16.53
2016-05-18T11:29:17.331Z,16.54
2016-05-18T11:30:17.411Z,16.56
2016-05-18T11:31:17.461Z,16.58
2016-05-18T11:32:17.495Z,16.53
2016-05-18T11:33:17.560Z,16.47
2016-05-18T11:34:17.610Z,16.57
2016-05-18T11:35:17.660Z,16.47
2016-05-18T11:36:17.678Z,16.58
2016-05-18T11:37:17.743Z,16.54
2016-05-18T11:38:17.824Z,16.57
2016-05-18T11:39:17.827Z,16.5
2016-05-18T11:40:17.876Z,16.47
2016-05-18T11:41:17.988Z,16.57
2016-05-18T11:42:18.007Z,16.5
2016-05-18T11:43:18.041Z,16.57
2016-05-18T11:44:18.105Z,16.51
2016-05-18T11:45:17.999Z,16.58
2016-05-18T11:46:18.204Z,16.6
2016-05-18T11:47:18.098Z,16.53
2016-05-18T11:48:18.288Z,16.56
2016-05-18T11:49:18.353Z,16.54
2016-05-18T11:50:18.404Z,16.57
2016-05-18T11:51:18.421Z,16.57
2016-05-18T11:52:18.501Z,16.61
2016-05-18T11:53:18.537Z,16.58
2016-05-18T11:54:18.586Z,16.56
2016-05-18T11:55:18.479Z,16.58
2016-05-18T11:56:18.700Z,16.61
2016-05-18T11:57:18.734Z,16.66
2016-05-18T11:58:18.643Z,16.61
2016-05-18T11:59:18.677Z,16.6
2016-05-18T12:00:18.914Z,16.64
2016-05-18T12:01:18.792Z,16.61
2016-05-18T12:02:18.997Z,16.66
2016-05-18T12:03:19.047Z,16.65
2016-05-18T12:04:19.113Z,16.6
2016-05-18T12:05:18.975Z,16.58
2016-05-18T12:06:19.196Z,16.58
2016-05-18T12:07:19.261Z,16.58
2016-05-18T12:08:19.530Z,16.56
2016-05-18T12:09:19.172Z,16.57
2016-05-18T12:10:19.238Z,16.56
2016-05-18T12:11:19.288Z,16.57
2016-05-18T12:12:19.510Z,16.61
2016-05-18T12:13:19.543Z,16.61
2016-05-18T12:14:19.593Z,16.58
2016-05-18T12:15:19.673Z,16.6
2016-05-18T12:16:19.520Z,16.6
2016-05-18T12:17:19.726Z,16.64
2016-05-18T12:18:19.790Z,16.58
2016-05-18T12:19:19.841Z,16.46
2016-05-18T12:20:19.874Z,16.58
2016-05-18T12:21:19.954Z,16.56
2016-05-18T12:22:19.990Z,16.64
2016-05-18T12:23:19.867Z,16.57
2016-05-18T12:24:20.056Z,16.57
2016-05-18T12:25:19.982Z,16.6
2016-05-18T12:26:20.218Z,16.49
2016-05-18T12:27:20.253Z,16.6
2016-05-18T12:28:20.286Z,16.56
2016-05-18T12:29:20.414Z,16.65
2016-05-18T12:30:20.104Z,16.6
2016-05-18T12:31:20.435Z,16.6
2016-05-18T12:32:20.500Z,16.56
2016-05-18T12:33:20.550Z,16.58
2016-05-18T12:34:20.568Z,16.64
2016-05-18T12:35:20.634Z,16.53
2016-05-18T12:36:20.699Z,16.58
2016-05-18T12:37:20.576Z,16.61
2016-05-18T12:38:20.939Z,16.65
2016-05-18T12:39:20.847Z,16.64
2016-05-18T12:40:20.865Z,16.6
2016-05-18T12:41:20.930Z,16.61
2016-05-18T12:42:20.855Z,16.61
2016-05-18T12:43:21.030Z,16.61
2016-05-18T12:44:20.907Z,16.57
2016-05-18T12:45:21.144Z,16.61
2016-05-18T12:46:21.179Z,16.61
2016-05-18T12:47:21.057Z,16.56
2016-05-18T12:48:21.309Z,16.61
2016-05-18T12:49:21.342Z,16.61
2016-05-18T12:50:21.393Z,16.6
2016-05-18T12:51:21.442Z,16.53
2016-05-18T12:52:21.476Z,16.61
2016-05-18T12:53:22.010Z,16.6
2016-05-18T12:54:21.606Z,16.58
2016-05-18T12:55:21.625Z,16.61
2016-05-18T12:56:21.690Z,16.65
2016-05-18T12:57:21.599Z,16.61